createdAt,value
2022-07-29T00:02:16.621Z,17.09
2022-07-29T00:04:43.445Z,16.97
2022-07-29T00:07:10.373Z,16.79
2022-07-29T00:09:51.389Z,17.01
2022-07-29T00:12:25.794Z,17.29
2022-07-29T00:14:57.066Z,17.05
2022-07-29T00:17:24.974Z,17.03
2022-07-29T00:19:51.909Z,17.05
2022-07-29T00:22:18.680Z,17.00
2022-07-29T00:24:45.529Z,16.97
2022-07-29T00:27:12.195Z,16.82
2022-07-29T00:29:38.860Z,16.71
2022-07-29T00:32:05.863Z,16.79
2022-07-29T00:34:51.141Z,16.66
2022-07-29T00:37:17.876Z,16.63
2022-07-29T00:39:44.749Z,16.89
2022-07-29T00:42:11.785Z,16.60
2022-07-29T00:44:42.453Z,17.04
2022-07-29T00:47:10.743Z,16.70
2022-07-29T00:49:39.768Z,16.56
2022-07-29T00:52:07.184Z,16.54
2022-07-29T00:54:34.978Z,16.59
2022-07-29T00:57:01.900Z,16.51
2022-07-29T00:59:34.468Z,16.49
2022-07-29T01:02:03.725Z,16.35
2022-07-29T01:04:32.210Z,16.23
2022-07-29T01:06:59.765Z,16.19
2022-07-29T01:09:35.052Z,16.00
2022-07-29T01:12:10.274Z,16.09
2022-07-29T01:14:38.390Z,16.26
2022-07-29T01:17:13.692Z,16.18
2022-07-29T01:20:02.884Z,16.28
2022-07-29T01:22:37.996Z,16.15
2022-07-29T01:25:43.645Z,16.11
2022-07-29T01:28:40.582Z,16.23
2022-07-29T01:31:11.505Z,16.15
2022-07-29T01:33:51.958Z,16.18
2022-07-29T01:36:34.677Z,16.27
2022-07-29T01:39:13.370Z,16.04
2022-07-29T01:42:04.694Z,16.09
2022-07-29T01:44:40.940Z,16.15
2022-07-29T01:47:15.383Z,16.26
2022-07-29T01:49:48.146Z,16.11
2022-07-29T01:52:22.891Z,16.26
2022-07-29T01:55:13.117Z,16.32
2022-07-29T01:57:43.219Z,16.54
2022-07-29T02:00:12.791Z,16.45
2022-07-29T02:02:42.373Z,16.21
2022-07-29T02:05:12.449Z,16.26
2022-07-29T02:07:43.209Z,16.32
2022-07-29T02:10:14.122Z,16.31
2022-07-29T02:12:43.602Z,16.14
2022-07-29T02:15:19.111Z,16.50
2022-07-29T02:18:01.050Z,16.20
2022-07-29T02:20:30.784Z,16.63
2022-07-29T02:23:00.208Z,16.43
2022-07-29T02:25:37.412Z,16.37
2022-07-29T02:28:06.867Z,16.69
2022-07-29T02:30:34.825Z,16.41
2022-07-29T02:33:02.419Z,16.62
2022-07-29T02:35:34.621Z,16.57
2022-07-29T02:38:22.581Z,16.67
2022-07-29T02:40:53.395Z,16.66
2022-07-29T02:43:22.035Z,16.52
2022-07-29T02:45:52.683Z,16.69
2022-07-29T02:48:27.126Z,16.50
2022-07-29T02:51:02.669Z,16.62
2022-07-29T02:53:34.253Z,16.61
2022-07-29T02:56:07.391Z,16.55
2022-07-29T02:58:47.986Z,16.57
2022-07-29T03:01:23.209Z,16.65
2022-07-29T03:03:54.016Z,16.76
2022-07-29T03:06:28.142Z,16.73
2022-07-29T03:09:12.058Z,16.63
2022-07-29T03:11:49.334Z,16.72
2022-07-29T03:14:20.337Z,16.67
2022-07-29T03:16:48.741Z,16.88
2022-07-29T03:19:16.078Z,17.01
2022-07-29T03:21:42.816Z,16.85
2022-07-29T03:24:10.680Z,16.92
2022-07-29T03:26:38.014Z,16.64
2022-07-29T03:29:04.701Z,17.15
2022-07-29T03:31:32.235Z,17.18
2022-07-29T03:34:00.630Z,17.48
2022-07-29T03:36:27.448Z,17.19
2022-07-29T03:38:54.437Z,17.14
2022-07-29T03:41:23.711Z,17.47
2022-07-29T03:43:52.574Z,17.39
2022-07-29T03:46:23.678Z,17.24
2022-07-29T03:48:57.520Z,17.18
2022-07-29T03:51:33.137Z,17.11
2022-07-29T03:54:07.688Z,17.29
2022-07-29T03:56:41.182Z,17.23
2022-07-29T03:59:08.961Z,16.72
2022-07-29T04:01:36.492Z,17.08
2022-07-29T04:04:04.194Z,17.11
2022-07-29T04:06:39.112Z,17.29
2022-07-29T04:09:05.802Z,17.37
2022-07-29T04:11:57.068Z,17.39
2022-07-29T04:14:24.150Z,17.50
2022-07-29T04:16:50.806Z,17.61
2022-07-29T04:19:17.485Z,17.72
2022-07-29T04:21:46.108Z,17.29
2022-07-29T04:24:13.076Z,17.55
2022-07-29T04:26:39.956Z,17.43
2022-07-29T04:29:06.586Z,17.51
2022-07-29T04:31:33.367Z,17.51
2022-07-29T04:34:00.040Z,17.63
2022-07-29T04:36:29.544Z,17.45
2022-07-29T04:38:57.025Z,17.57
2022-07-29T04:41:23.680Z,17.60
2022-07-29T04:44:01.897Z,17.80
2022-07-29T04:46:29.129Z,17.90
2022-07-29T04:48:56.115Z,17.82
2022-07-29T04:51:23.090Z,18.13
2022-07-29T04:53:49.811Z,17.63
2022-07-29T04:56:18.411Z,18.01
2022-07-29T04:58:45.102Z,18.20
2022-07-29T05:01:12.102Z,18.44
2022-07-29T05:03:38.844Z,19.17
2022-07-29T05:06:05.628Z,18.88
2022-07-29T05:08:32.230Z,19.39
2022-07-29T05:12:11.833Z,19.48
2022-07-29T05:19:28.809Z,19.25
2022-07-29T05:22:22.658Z,19.04
2022-07-29T05:28:07.311Z,18.88
2022-07-29T05:30:34.039Z,19.12
2022-07-29T05:33:00.764Z,19.46
2022-07-29T05:35:27.633Z,19.64
2022-07-29T05:37:54.581Z,19.35
2022-07-29T05:40:21.462Z,19.47
2022-07-29T05:42:48.413Z,19.68
2022-07-29T05:45:15.008Z,19.95
2022-07-29T05:47:41.652Z,20.30
2022-07-29T05:50:08.915Z,20.65
2022-07-29T05:52:35.566Z,21.06
2022-07-29T05:55:05.323Z,20.53
2022-07-29T05:57:32.239Z,20.60
2022-07-29T05:59:58.903Z,20.12
2022-07-29T06:02:25.589Z,20.01
2022-07-29T06:04:52.271Z,20.54
2022-07-29T06:07:19.155Z,20.59
2022-07-29T06:09:45.897Z,20.49
2022-07-29T06:12:12.638Z,20.49
2022-07-29T06:14:39.292Z,20.43
2022-07-29T06:17:07.597Z,20.98
2022-07-29T06:19:37.479Z,21.27
2022-07-29T06:22:04.823Z,21.88
2022-07-29T06:24:33.678Z,21.94
2022-07-29T06:27:00.396Z,21.95
2022-07-29T06:29:27.047Z,21.84
2022-07-29T06:31:53.829Z,22.07
2022-07-29T06:34:20.691Z,22.75
2022-07-29T06:36:47.591Z,22.69
2022-07-29T06:39:15.529Z,22.40
2022-07-29T06:41:42.394Z,22.31
2022-07-29T06:44:12.165Z,22.33
2022-07-29T06:46:39.062Z,22.05
2022-07-29T06:49:05.987Z,21.19
2022-07-29T06:51:32.831Z,22.38
2022-07-29T06:54:03.336Z,22.79
2022-07-29T06:56:31.867Z,22.25
2022-07-29T06:58:58.833Z,22.06
2022-07-29T07:01:28.244Z,22.95
2022-07-29T07:03:54.996Z,22.74
2022-07-29T07:06:21.693Z,23.09
2022-07-29T07:08:48.666Z,23.30
2022-07-29T07:11:15.433Z,23.61
2022-07-29T07:13:42.073Z,23.22
2022-07-29T07:16:08.712Z,23.67
2022-07-29T07:21:02.074Z,23.82
2022-07-29T07:23:28.795Z,24.02
2022-07-29T07:25:58.258Z,23.77
2022-07-29T07:28:25.341Z,23.91
2022-07-29T07:30:52.826Z,24.18
2022-07-29T07:33:19.754Z,23.40
2022-07-29T07:35:46.714Z,24.04
2022-07-29T07:38:14.112Z,23.24
2022-07-29T07:40:41.548Z,23.61
2022-07-29T07:43:08.248Z,23.85
2022-07-29T07:45:35.311Z,23.54
2022-07-29T07:48:02.121Z,23.44
2022-07-29T07:50:28.964Z,23.03
2022-07-29T07:52:59.803Z,23.26
2022-07-29T07:55:27.200Z,23.42
2022-07-29T07:57:55.404Z,23.61
2022-07-29T08:00:23.257Z,23.30
2022-07-29T08:02:51.204Z,24.19
2022-07-29T08:05:18.972Z,23.70
2022-07-29T08:07:48.826Z,23.93
2022-07-29T08:10:37.167Z,24.34
2022-07-29T08:13:05.882Z,24.52
2022-07-29T08:15:32.783Z,25.26
2022-07-29T08:18:00.104Z,24.45
2022-07-29T08:20:27.380Z,24.66
2022-07-29T08:22:54.601Z,24.64
2022-07-29T08:25:21.595Z,24.41
2022-07-29T08:27:48.821Z,24.24
2022-07-29T08:30:16.133Z,24.51
2022-07-29T08:32:53.811Z,25.01
2022-07-29T08:35:23.720Z,24.68
2022-07-29T08:37:50.499Z,25.27
2022-07-29T08:40:17.762Z,25.62
2022-07-29T08:42:44.397Z,25.36
2022-07-29T08:45:11.465Z,26.19
2022-07-29T08:47:42.716Z,26.89
2022-07-29T08:50:11.124Z,26.74
2022-07-29T08:52:41.748Z,26.96
2022-07-29T08:55:10.675Z,27.50
2022-07-29T08:57:40.083Z,27.82
2022-07-29T09:00:19.213Z,27.25
2022-07-29T09:02:52.691Z,27.74
2022-07-29T09:05:20.179Z,28.38
2022-07-29T09:07:49.020Z,27.74
2022-07-29T09:10:15.916Z,28.70
2022-07-29T09:12:42.827Z,29.28
2022-07-29T09:15:09.779Z,28.63
2022-07-29T09:17:48.128Z,28.45
2022-07-29T09:20:17.613Z,28.06
2022-07-29T09:22:44.859Z,28.66
2022-07-29T09:25:13.224Z,29.32
2022-07-29T09:27:40.159Z,29.31
2022-07-29T09:30:11.554Z,28.58
2022-07-29T09:33:02.409Z,29.01
2022-07-29T09:35:30.164Z,29.47
2022-07-29T09:37:57.361Z,29.33
2022-07-29T09:40:26.393Z,30.21
2022-07-29T09:42:58.276Z,28.73
2022-07-29T09:45:33.197Z,28.40
2022-07-29T09:48:04.026Z,28.50
2022-07-29T09:50:39.057Z,28.36
2022-07-29T09:53:05.900Z,29.41
2022-07-29T09:55:33.078Z,27.90
2022-07-29T09:58:20.109Z,28.77
2022-07-29T10:00:48.118Z,27.85
2022-07-29T10:03:16.744Z,26.70
2022-07-29T10:05:44.490Z,27.58
2022-07-29T10:08:13.414Z,27.41
2022-07-29T10:10:43.087Z,27.10
2022-07-29T10:13:16.154Z,26.84
2022-07-29T10:15:46.359Z,27.53
2022-07-29T10:18:15.208Z,27.79
2022-07-29T10:20:45.184Z,27.86
2022-07-29T10:23:11.862Z,28.65
2022-07-29T10:25:38.555Z,28.66
2022-07-29T10:28:06.861Z,28.14
2022-07-29T10:30:33.790Z,28.00
2022-07-29T10:33:29.494Z,27.64
2022-07-29T10:36:41.026Z,27.37
2022-07-29T10:39:44.577Z,28.82
2022-07-29T10:42:29.669Z,28.31
2022-07-29T10:45:02.726Z,27.77
2022-07-29T10:47:32.242Z,27.89
2022-07-29T10:50:04.954Z,28.35
2022-07-29T10:52:50.182Z,28.07
2022-07-29T10:55:39.357Z,28.72
2022-07-29T10:58:15.729Z,28.50
2022-07-29T11:00:45.508Z,28.53
2022-07-29T11:03:52.210Z,28.67
2022-07-29T11:09:35.010Z,27.96
2022-07-29T11:12:05.188Z,28.39
2022-07-29T11:15:00.025Z,27.62
2022-07-29T11:17:27.088Z,28.23
2022-07-29T11:20:42.475Z,28.53
2022-07-29T11:23:33.983Z,27.87
2022-07-29T11:26:10.423Z,27.44
2022-07-29T11:28:55.735Z,28.23
2022-07-29T11:31:44.478Z,28.13
2022-07-29T11:34:21.308Z,27.59
2022-07-29T11:37:07.588Z,28.77
2022-07-29T11:42:28.174Z,28.46
2022-07-29T11:45:43.403Z,28.24
2022-07-29T11:48:29.541Z,28.47
2022-07-29T11:51:00.407Z,28.21
2022-07-29T11:53:29.125Z,28.35
2022-07-29T11:56:00.549Z,28.90
2022-07-29T11:58:29.338Z,29.57
2022-07-29T12:00:56.538Z,28.93
2022-07-29T12:03:34.813Z,29.26
2022-07-29T12:06:18.047Z,29.20
2022-07-29T12:08:45.656Z,29.09
2022-07-29T12:11:21.450Z,28.33
2022-07-29T12:13:49.906Z,28.93
2022-07-29T12:16:26.006Z,29.40
2022-07-29T12:19:02.419Z,28.92
2022-07-29T12:21:31.209Z,29.52
2022-07-29T12:24:03.395Z,29.29
2022-07-29T12:26:34.184Z,28.56
2022-07-29T12:29:03.577Z,29.33
2022-07-29T12:31:42.386Z,30.07
2022-07-29T12:34:16.693Z,29.32
2022-07-29T12:36:43.931Z,30.26
2022-07-29T12:39:12.396Z,30.43
2022-07-29T12:41:40.072Z,30.16
2022-07-29T12:44:06.827Z,30.61
2022-07-29T12:46:33.703Z,29.87
2022-07-29T12:49:00.594Z,29.79
2022-07-29T12:51:39.285Z,29.39
2022-07-29T12:54:16.283Z,29.20
2022-07-29T12:56:45.821Z,29.49
2022-07-29T12:59:23.562Z,29.97
2022-07-29T13:01:52.295Z,28.92
2022-07-29T13:04:30.212Z,30.05
2022-07-29T13:07:54.051Z,29.67
2022-07-29T13:10:12.906Z,29.01
2022-07-29T13:12:40.177Z,28.89
2022-07-29T13:15:15.729Z,28.65
2022-07-29T13:17:43.733Z,27.89
2022-07-29T13:20:15.158Z,28.03
2022-07-29T13:22:46.427Z,28.66
2022-07-29T13:25:13.238Z,28.86
2022-07-29T13:27:40.630Z,27.75
2022-07-29T13:30:09.999Z,28.50
2022-07-29T13:32:40.133Z,28.57
2022-07-29T13:35:09.028Z,28.43
2022-07-29T13:37:39.256Z,28.69
2022-07-29T13:40:07.894Z,28.92
2022-07-29T13:42:34.751Z,28.55
2022-07-29T13:45:02.229Z,28.03
2022-07-29T13:47:32.303Z,28.31
2022-07-29T13:50:01.882Z,28.71
2022-07-29T13:52:29.080Z,28.86
2022-07-29T13:54:55.804Z,28.38
2022-07-29T13:57:22.524Z,28.11
2022-07-29T13:59:53.766Z,27.57
2022-07-29T14:02:20.975Z,27.60
2022-07-29T14:04:47.802Z,28.05
2022-07-29T14:07:16.247Z,28.08
2022-07-29T14:09:43.673Z,27.87
2022-07-29T14:12:10.572Z,27.72
2022-07-29T14:14:37.703Z,27.98
2022-07-29T14:17:07.433Z,28.43
2022-07-29T14:19:39.374Z,28.04
2022-07-29T14:22:08.705Z,27.71
2022-07-29T14:24:37.622Z,28.15
2022-07-29T14:27:05.774Z,28.32
2022-07-29T14:29:37.414Z,28.25
2022-07-29T14:32:11.113Z,27.82
2022-07-29T14:34:38.616Z,27.88
2022-07-29T14:37:06.996Z,27.34
2022-07-29T14:39:39.337Z,28.24
2022-07-29T14:42:10.045Z,27.98
2022-07-29T14:44:39.028Z,28.13
2022-07-29T14:47:07.807Z,27.31
2022-07-29T14:49:35.248Z,27.67
2022-07-29T14:52:02.144Z,27.53
2022-07-29T14:54:28.855Z,27.90
2022-07-29T14:56:58.191Z,27.76
2022-07-29T14:59:25.739Z,27.46
2022-07-29T15:01:53.683Z,27.32
2022-07-29T15:04:21.073Z,27.52
2022-07-29T15:06:47.829Z,27.28
2022-07-29T15:09:14.760Z,27.71
2022-07-29T15:11:41.629Z,26.96
2022-07-29T15:14:08.366Z,27.18
2022-07-29T15:16:41.932Z,27.40
2022-07-29T15:19:10.935Z,27.58
2022-07-29T15:21:47.948Z,27.09
2022-07-29T15:24:15.466Z,27.08
2022-07-29T15:26:43.413Z,26.72
2022-07-29T15:29:10.292Z,27.33
2022-07-29T15:31:37.017Z,27.47
2022-07-29T15:34:05.923Z,27.81
2022-07-29T15:36:51.568Z,27.41
2022-07-29T15:39:19.470Z,27.63
2022-07-29T15:41:46.515Z,27.11
2022-07-29T15:44:13.217Z,27.05
2022-07-29T15:46:58.443Z,27.34
2022-07-29T15:49:32.828Z,27.06
2022-07-29T15:52:18.025Z,27.56
2022-07-29T15:54:44.824Z,27.17
2022-07-29T15:57:11.553Z,27.27
2022-07-29T15:59:38.300Z,26.53
2022-07-29T16:02:08.262Z,26.19
2022-07-29T16:04:34.978Z,26.49
2022-07-29T16:07:01.759Z,26.22
2022-07-29T16:09:28.988Z,27.19
2022-07-29T16:11:56.603Z,27.34
2022-07-29T16:14:23.392Z,26.98
2022-07-29T16:16:50.134Z,26.46
2022-07-29T16:19:16.890Z,26.65
2022-07-29T16:21:43.893Z,27.29
2022-07-29T16:24:10.745Z,26.88
2022-07-29T16:26:37.591Z,27.33
2022-07-29T16:29:04.709Z,26.39
2022-07-29T16:31:31.452Z,26.71
2022-07-29T16:33:58.325Z,26.40
2022-07-29T16:36:25.045Z,26.71
2022-07-29T16:38:52.006Z,27.08
2022-07-29T16:41:18.806Z,26.22
2022-07-29T16:43:45.514Z,26.61
2022-07-29T16:46:17.795Z,26.97
2022-07-29T16:48:46.007Z,26.90
2022-07-29T16:51:14.469Z,26.51
2022-07-29T16:53:41.801Z,26.76
2022-07-29T16:56:12.616Z,26.42
2022-07-29T16:58:43.521Z,26.45
2022-07-29T17:01:11.070Z,26.03
2022-07-29T17:04:00.250Z,26.13
2022-07-29T17:06:29.449Z,26.23
2022-07-29T17:08:56.847Z,26.20
2022-07-29T17:11:53.333Z,26.21
2022-07-29T17:14:10.750Z,26.18
2022-07-29T17:16:37.615Z,26.14
2022-07-29T17:19:04.490Z,25.68
2022-07-29T17:21:31.382Z,26.26
2022-07-29T17:23:59.349Z,26.36
2022-07-29T17:26:28.276Z,26.32
2022-07-29T17:28:55.710Z,26.34
2022-07-29T17:31:23.383Z,25.86
2022-07-29T17:33:50.563Z,26.07
2022-07-29T17:36:29.783Z,26.13
2022-07-29T17:39:01.051Z,26.09
2022-07-29T17:41:28.188Z,25.71
2022-07-29T17:43:57.638Z,26.21
2022-07-29T17:46:27.256Z,25.70
2022-07-29T17:48:55.905Z,26.07
2022-07-29T17:51:24.074Z,26.11
2022-07-29T17:53:50.817Z,26.13
2022-07-29T17:56:17.543Z,26.13
2022-07-29T17:58:44.512Z,25.53
2022-07-29T18:01:11.228Z,25.81
2022-07-29T18:03:38.077Z,25.76
2022-07-29T18:06:05.228Z,26.25
2022-07-29T18:08:32.974Z,25.49
2022-07-29T18:10:59.621Z,25.77
2022-07-29T18:13:26.860Z,25.46
2022-07-29T18:15:57.536Z,25.39
2022-07-29T18:18:26.731Z,25.26
2022-07-29T18:20:53.516Z,25.50
2022-07-29T18:23:20.169Z,24.82
2022-07-29T18:25:46.930Z,25.15
2022-07-29T18:28:13.685Z,25.27
2022-07-29T18:30:40.766Z,25.33
2022-07-29T18:33:21.624Z,25.27
2022-07-29T18:35:51.349Z,25.40
2022-07-29T18:38:18.058Z,25.26
2022-07-29T18:40:45.893Z,25.24
2022-07-29T18:43:13.274Z,25.09
2022-07-29T18:45:40.238Z,25.26
2022-07-29T18:48:12.625Z,24.87
2022-07-29T18:50:40.517Z,25.04
2022-07-29T18:53:07.349Z,24.84
2022-07-29T18:55:34.046Z,24.72
2022-07-29T18:58:00.707Z,24.91
2022-07-29T19:00:27.759Z,24.77
2022-07-29T19:02:55.020Z,25.05
2022-07-29T19:05:21.912Z,24.99
2022-07-29T19:07:49.096Z,24.56
2022-07-29T19:10:15.789Z,24.03
2022-07-29T19:12:42.769Z,24.31
2022-07-29T19:15:10.615Z,24.75
2022-07-29T19:17:37.967Z,24.98
2022-07-29T19:20:07.191Z,25.44
2022-07-29T19:22:34.476Z,25.38
2022-07-29T19:25:01.796Z,24.93
2022-07-29T19:27:28.443Z,24.80
2022-07-29T19:29:59.040Z,24.70
2022-07-29T19:32:26.444Z,24.86
2022-07-29T19:35:12.254Z,24.69
2022-07-29T19:37:38.900Z,24.60
2022-07-29T19:40:06.957Z,24.11
2022-07-29T19:42:34.059Z,24.65
2022-07-29T19:45:00.783Z,24.52
2022-07-29T19:47:27.458Z,24.42
2022-07-29T19:49:54.172Z,24.40
2022-07-29T19:52:20.913Z,24.23
2022-07-29T19:54:47.658Z,24.27
2022-07-29T19:57:14.435Z,24.15
2022-07-29T19:59:41.381Z,23.90
2022-07-29T20:02:11.188Z,24.40
2022-07-29T20:04:38.736Z,24.50
2022-07-29T20:07:06.502Z,24.14
2022-07-29T20:09:33.308Z,23.93
2022-07-29T20:12:00.038Z,24.02
2022-07-29T20:14:26.689Z,24.13
2022-07-29T20:16:54.447Z,23.80
2022-07-29T20:19:21.577Z,23.92
2022-07-29T20:21:48.321Z,23.80
2022-07-29T20:24:15.084Z,23.93
2022-07-29T20:26:41.895Z,23.86
2022-07-29T20:29:09.180Z,23.90
2022-07-29T20:31:36.212Z,23.97
2022-07-29T20:34:03.347Z,23.91
2022-07-29T20:36:30.440Z,23.73
2022-07-29T20:38:57.536Z,24.22
2022-07-29T20:41:24.217Z,23.70
2022-07-29T20:43:50.961Z,23.68
2022-07-29T20:46:18.657Z,23.77
2022-07-29T20:48:46.966Z,23.62
2022-07-29T20:51:14.279Z,23.41
2022-07-29T20:53:41.635Z,23.50
2022-07-29T20:56:08.789Z,23.72
2022-07-29T20:58:36.537Z,23.41
2022-07-29T21:01:04.170Z,23.67
2022-07-29T21:03:31.070Z,23.59
2022-07-29T21:05:57.948Z,23.68
2022-07-29T21:08:25.411Z,23.82
2022-07-29T21:10:52.911Z,23.92
2022-07-29T21:13:20.645Z,23.64
2022-07-29T21:15:49.875Z,23.60
2022-07-29T21:18:37.020Z,23.78
2022-07-29T21:21:05.341Z,23.37
2022-07-29T21:23:32.095Z,23.83
2022-07-29T21:25:58.745Z,23.45
2022-07-29T21:28:40.976Z,23.14
2022-07-29T21:31:10.458Z,23.16
2022-07-29T21:33:37.317Z,23.68
2022-07-29T21:36:42.398Z,23.11
2022-07-29T21:38:51.854Z,23.22
2022-07-29T21:41:18.462Z,23.36
2022-07-29T21:43:46.172Z,23.55
2022-07-29T21:46:13.000Z,23.65
2022-07-29T21:48:44.174Z,23.40
2022-07-29T21:51:11.497Z,23.56
2022-07-29T21:53:38.138Z,23.67
2022-07-29T21:56:07.659Z,23.36
2022-07-29T21:58:41.652Z,23.33
2022-07-29T22:01:08.480Z,23.46
2022-07-29T22:03:35.243Z,23.35
2022-07-29T22:06:01.980Z,23.34
2022-07-29T22:08:28.621Z,23.21
2022-07-29T22:10:55.467Z,23.23
2022-07-29T22:13:22.135Z,23.33
2022-07-29T22:15:48.856Z,23.31
2022-07-29T22:18:20.829Z,23.14
2022-07-29T22:20:51.342Z,23.29
2022-07-29T22:23:18.069Z,23.10
2022-07-29T22:25:44.830Z,23.14
2022-07-29T22:28:11.449Z,23.22
2022-07-29T22:30:38.250Z,23.34
2022-07-29T22:33:05.267Z,23.21
2022-07-29T22:35:31.919Z,23.02
2022-07-29T22:37:58.602Z,23.31
2022-07-29T22:40:30.691Z,23.02
2022-07-29T22:42:57.642Z,23.00
2022-07-29T22:45:24.343Z,23.12
2022-07-29T22:47:57.488Z,22.85
2022-07-29T22:50:26.411Z,23.27
2022-07-29T22:52:53.195Z,22.81
2022-07-29T22:55:20.014Z,22.93
2022-07-29T22:57:46.807Z,23.18
2022-07-29T23:00:14.219Z,23.08
2022-07-29T23:02:41.574Z,22.87
2022-07-29T23:05:09.087Z,22.83
2022-07-29T23:07:36.324Z,22.89
2022-07-29T23:10:04.119Z,22.69
2022-07-29T23:12:30.760Z,22.89
2022-07-29T23:14:57.497Z,22.74
2022-07-29T23:17:24.332Z,22.66
2022-07-29T23:19:51.129Z,22.58
2022-07-29T23:22:18.612Z,22.71
2022-07-29T23:24:45.445Z,22.69
2022-07-29T23:27:12.084Z,22.39
2022-07-29T23:29:38.732Z,22.33
2022-07-29T23:32:05.813Z,22.44
2022-07-29T23:34:32.704Z,22.20
2022-07-29T23:36:59.567Z,22.51
2022-07-29T23:39:26.478Z,22.30
2022-07-29T23:41:53.312Z,22.43
2022-07-29T23:44:20.077Z,22.13
2022-07-29T23:46:46.795Z,22.21
2022-07-29T23:49:14.005Z,22.26
2022-07-29T23:51:40.873Z,22.30
2022-07-29T23:54:07.522Z,22.07
2022-07-29T23:56:34.154Z,22.03
2022-07-29T23:59:00.935Z,22.15
